Portada
METAR-TAF:

METAR-TAF

Aeropuertos :

Aeropuerto de Verona-Villafranca

Verona, Italia

latitud: 45-23N, longitud: 010-52E, altitud: 67 m

Observación

El informe se hizo hace 44 minutos, a las 12:20 UTC
Viento 7 kt del oeste-suroeste
Temperatura 12°C
Humedad 44%
Presión 1024 hPa
Visibilidad 10 km o más
sin nubes por debajo de 1500 m y sin presencia de cumulonimbus.

METAR: LIPX 171220Z 25007KT CAVOK 12/00 Q1024

Hora: 14:04 (13:04 UTC)

Pronóstico

El informe se hizo hace 2 horas y 4 minutos, a las 11:00 UTC
Pronóstico válido del 17 a las 12 UTC al 17 a las 21 UTC
Viento 5 kt con dirección variable
Visibilidad: 8000 m

TAF: LIPX 171100Z 1712/1721 VRB05KT 8000 NSC

Observaciones y pronósticos meteorológicos de más de 4000 aeropuertos (mensajes METAR y TAF).

Los puntos amarillos y rojos representan las estaciones disponibles.

Ponga el ratón en el punto deseado para ver el nombre de la estación.

Haga clic para ver las observaciones y los pronósticos meteorológicos.

Para cambiar el mapa : haga clic en los botones verdes con una cruz de color negro para hacer un zoom, en el botón verde con un guión para alejar o en las flechas verdes para mapas adyacentes.


METAR-TAF: